createdAt,value
2022-11-17T00:00:07.608Z,25.76
2022-11-17T00:00:37.617Z,25.78
2022-11-17T00:01:07.635Z,25.76
2022-11-17T00:01:37.627Z,25.76
2022-11-17T00:02:07.676Z,25.76
2022-11-17T00:02:37.769Z,25.75
2022-11-17T00:03:07.757Z,25.76
2022-11-17T00:03:38.090Z,25.78
2022-11-17T00:04:07.964Z,25.76
2022-11-17T00:04:37.956Z,25.78
2022-11-17T00:05:07.970Z,25.76
2022-11-17T00:05:37.977Z,25.75
2022-11-17T00:06:07.997Z,25.75
2022-11-17T00:06:37.990Z,25.76
2022-11-17T00:07:08.038Z,25.75
2022-11-17T00:07:38.073Z,25.75
2022-11-17T00:08:08.093Z,25.76
2022-11-17T00:08:38.116Z,25.75
2022-11-17T00:09:08.080Z,25.75
2022-11-17T00:09:38.173Z,25.76
2022-11-17T00:10:08.264Z,25.75
2022-11-17T00:10:38.468Z,25.75
2022-11-17T00:11:08.412Z,25.76
2022-11-17T00:11:38.498Z,25.76
2022-11-17T00:12:08.660Z,25.75
2022-11-17T00:12:38.595Z,25.75
2022-11-17T00:13:08.672Z,25.74
2022-11-17T00:13:38.753Z,25.75
2022-11-17T00:14:08.834Z,25.76
2022-11-17T00:14:38.917Z,25.74
2022-11-17T00:15:08.989Z,25.74
2022-11-17T00:15:39.075Z,25.75
2022-11-17T00:16:09.163Z,25.76
2022-11-17T00:16:39.249Z,25.75
2022-11-17T00:17:09.340Z,25.72
2022-11-17T00:17:39.475Z,25.76
2022-11-17T00:18:09.441Z,25.76
2022-11-17T00:18:39.516Z,25.74
2022-11-17T00:19:09.526Z,25.74
2022-11-17T00:19:39.534Z,25.74
2022-11-17T00:20:09.548Z,25.74
2022-11-17T00:20:39.586Z,25.72
2022-11-17T00:21:09.580Z,25.74
2022-11-17T00:21:39.568Z,25.74
2022-11-17T00:22:09.569Z,25.74
2022-11-17T00:22:39.574Z,25.75
2022-11-17T00:23:09.587Z,25.75
2022-11-17T00:23:39.576Z,25.74
2022-11-17T00:24:09.585Z,25.75
2022-11-17T00:24:39.597Z,25.75
2022-11-17T00:25:09.620Z,25.72
2022-11-17T00:25:39.620Z,25.72
2022-11-17T00:26:09.642Z,25.76
2022-11-17T00:26:39.742Z,25.76
2022-11-17T00:27:09.758Z,25.74
2022-11-17T00:27:39.820Z,25.75
2022-11-17T00:28:09.818Z,25.75
2022-11-17T00:28:39.822Z,25.74
2022-11-17T00:29:09.814Z,25.74
2022-11-17T00:29:39.937Z,25.75
2022-11-17T00:30:10.064Z,25.72
2022-11-17T00:30:43.701Z,25.74
2022-11-17T00:31:10.189Z,25.74
2022-11-17T00:31:40.183Z,25.72
2022-11-17T00:32:10.179Z,25.72
2022-11-17T00:32:40.183Z,25.74
2022-11-17T00:33:10.181Z,25.75
2022-11-17T00:33:40.162Z,25.72
2022-11-17T00:34:10.298Z,25.74
2022-11-17T00:34:40.288Z,25.75
2022-11-17T00:35:10.297Z,25.74
2022-11-17T00:35:40.302Z,25.72
2022-11-17T00:36:10.449Z,25.74
2022-11-17T00:36:40.441Z,25.74
2022-11-17T00:37:10.445Z,25.74
2022-11-17T00:37:40.458Z,25.75
2022-11-17T00:38:10.445Z,25.74
2022-11-17T00:38:40.559Z,25.74
2022-11-17T00:39:10.557Z,25.74
2022-11-17T00:39:40.678Z,25.74
2022-11-17T00:40:10.711Z,25.75
2022-11-17T00:40:40.709Z,25.72
2022-11-17T00:41:10.720Z,25.74
2022-11-17T00:41:40.744Z,25.74
2022-11-17T00:42:10.757Z,25.75
2022-11-17T00:42:40.739Z,25.74
2022-11-17T00:43:10.759Z,25.75
2022-11-17T00:43:40.756Z,25.75
2022-11-17T00:44:10.766Z,25.74
2022-11-17T00:44:40.773Z,25.75
2022-11-17T00:45:10.770Z,25.75
2022-11-17T00:45:40.900Z,25.75
2022-11-17T00:46:10.910Z,25.75
2022-11-17T00:46:40.904Z,25.76
2022-11-17T00:47:10.924Z,25.76
2022-11-17T00:47:40.909Z,25.75
2022-11-17T00:48:11.028Z,25.75
2022-11-17T00:48:41.020Z,25.75
2022-11-17T00:49:11.158Z,25.78
2022-11-17T00:49:41.158Z,25.78
2022-11-17T00:50:11.148Z,25.76
2022-11-17T00:50:41.174Z,25.76
2022-11-17T00:51:11.226Z,25.76
2022-11-17T00:51:41.181Z,25.74
2022-11-17T00:52:11.296Z,25.78
2022-11-17T00:52:41.297Z,25.76
2022-11-17T00:53:11.287Z,25.75
2022-11-17T00:53:41.421Z,25.76
2022-11-17T00:54:11.424Z,25.76
2022-11-17T00:54:41.440Z,25.75
2022-11-17T00:55:11.513Z,25.76
2022-11-17T00:55:41.577Z,25.76
2022-11-17T00:56:11.600Z,25.76
2022-11-17T00:56:41.613Z,25.76
2022-11-17T00:57:11.737Z,25.78
2022-11-17T00:57:41.716Z,25.75
2022-11-17T00:58:11.702Z,25.76
2022-11-17T00:58:41.713Z,25.76
2022-11-17T00:59:11.730Z,25.76
2022-11-17T00:59:41.838Z,25.76
2022-11-17T01:00:11.848Z,25.75
2022-11-17T01:00:41.844Z,25.76
2022-11-17T01:01:12.046Z,25.76
2022-11-17T01:01:42.128Z,25.76
2022-11-17T01:02:12.143Z,25.75
2022-11-17T01:02:42.141Z,25.74
2022-11-17T01:03:12.135Z,25.74
2022-11-17T01:03:42.148Z,25.79
2022-11-17T01:04:12.149Z,25.78
2022-11-17T01:04:42.160Z,25.75
2022-11-17T01:05:12.171Z,25.76
2022-11-17T01:05:42.181Z,25.75
2022-11-17T01:06:12.185Z,25.78
2022-11-17T01:06:42.189Z,25.76
2022-11-17T01:07:12.244Z,25.78
2022-11-17T01:07:42.243Z,25.76
2022-11-17T01:08:12.248Z,25.76
2022-11-17T01:08:42.250Z,25.76
2022-11-17T01:09:12.365Z,25.76
2022-11-17T01:09:42.447Z,25.76
2022-11-17T01:10:12.532Z,25.76
2022-11-17T01:10:42.653Z,25.76
2022-11-17T01:11:12.754Z,25.75
2022-11-17T01:11:42.835Z,25.76
2022-11-17T01:12:12.908Z,25.75
2022-11-17T01:12:43.105Z,25.74
2022-11-17T01:13:13.029Z,25.78
2022-11-17T01:13:43.112Z,25.74
2022-11-17T01:14:13.207Z,25.75
2022-11-17T01:14:43.308Z,25.76
2022-11-17T01:15:13.381Z,25.76
2022-11-17T01:15:43.464Z,25.75
2022-11-17T01:16:13.549Z,25.75
2022-11-17T01:16:43.638Z,25.74
2022-11-17T01:17:13.719Z,25.75
2022-11-17T01:17:43.806Z,25.75
2022-11-17T01:18:13.886Z,25.75
2022-11-17T01:18:43.966Z,25.74
2022-11-17T01:19:14.102Z,25.75
2022-11-17T01:19:44.071Z,25.75
2022-11-17T01:20:14.078Z,25.76
2022-11-17T01:20:44.208Z,25.74
2022-11-17T01:21:14.217Z,25.76
2022-11-17T01:21:44.219Z,25.74
2022-11-17T01:22:14.206Z,25.71
2022-11-17T01:22:44.214Z,25.75
2022-11-17T01:23:14.228Z,25.72
2022-11-17T01:23:44.224Z,25.75
2022-11-17T01:24:14.398Z,25.74
2022-11-17T01:24:44.367Z,25.76
2022-11-17T01:25:14.373Z,25.74
2022-11-17T01:25:44.381Z,25.75
2022-11-17T01:26:14.393Z,25.75
2022-11-17T01:26:44.417Z,25.71
2022-11-17T01:27:14.536Z,25.75
2022-11-17T01:27:44.643Z,25.72
2022-11-17T01:28:14.762Z,25.74
2022-11-17T01:28:44.760Z,25.72
2022-11-17T01:29:14.750Z,25.72
2022-11-17T01:29:44.744Z,25.72
2022-11-17T01:30:14.747Z,25.69
2022-11-17T01:30:44.778Z,25.71
2022-11-17T01:31:14.799Z,25.71
2022-11-17T01:31:44.788Z,25.72
2022-11-17T01:32:14.787Z,25.72
2022-11-17T01:32:44.828Z,25.72
2022-11-17T01:33:14.828Z,25.72
2022-11-17T01:33:44.819Z,25.72
2022-11-17T01:34:14.934Z,25.74
2022-11-17T01:34:44.957Z,25.71
2022-11-17T01:35:14.970Z,25.72
2022-11-17T01:35:44.981Z,25.71
2022-11-17T01:36:14.990Z,25.69
2022-11-17T01:36:45.002Z,25.72
2022-11-17T01:37:15.020Z,25.71
2022-11-17T01:37:45.006Z,25.71
2022-11-17T01:38:15.113Z,25.71
2022-11-17T01:38:45.121Z,25.71
2022-11-17T01:39:15.142Z,25.72
2022-11-17T01:39:45.137Z,25.72
2022-11-17T01:40:15.262Z,25.71
2022-11-17T01:40:45.275Z,25.72
2022-11-17T01:41:15.303Z,25.74
2022-11-17T01:41:45.318Z,25.71
2022-11-17T01:42:15.323Z,25.72
2022-11-17T01:42:45.373Z,25.72
2022-11-17T01:43:15.357Z,25.72
2022-11-17T01:43:45.441Z,25.69
2022-11-17T01:44:15.408Z,25.71
2022-11-17T01:44:45.404Z,25.71
2022-11-17T01:45:15.540Z,25.74
2022-11-17T01:45:45.534Z,25.72
2022-11-17T01:46:15.527Z,25.68
2022-11-17T01:46:45.641Z,25.71
2022-11-17T01:47:15.765Z,25.72
2022-11-17T01:47:45.757Z,25.72
2022-11-17T01:48:15.873Z,25.71
2022-11-17T01:48:45.994Z,25.69
2022-11-17T01:49:15.993Z,25.74
2022-11-17T01:49:46.001Z,25.72
2022-11-17T01:50:16.000Z,25.72
2022-11-17T01:50:46.121Z,25.68
2022-11-17T01:51:16.121Z,25.69
2022-11-17T01:51:46.157Z,25.69
2022-11-17T01:52:16.165Z,25.71
2022-11-17T01:52:46.164Z,25.69
2022-11-17T01:53:16.278Z,25.69
2022-11-17T01:53:46.292Z,25.71
2022-11-17T01:54:16.289Z,25.69
2022-11-17T01:54:46.286Z,25.69
2022-11-17T01:55:16.290Z,25.69
2022-11-17T01:55:46.415Z,25.71
2022-11-17T01:56:16.407Z,25.71
2022-11-17T01:56:46.533Z,25.68
2022-11-17T01:57:16.544Z,25.72
2022-11-17T01:57:46.561Z,25.72
2022-11-17T01:58:16.573Z,25.69
2022-11-17T01:58:46.695Z,25.71
2022-11-17T01:59:16.777Z,25.71
2022-11-17T01:59:46.751Z,25.69
2022-11-17T02:00:16.770Z,25.71
2022-11-17T02:00:46.789Z,25.71
2022-11-17T02:01:17.040Z,25.71
2022-11-17T02:01:47.020Z,25.71
2022-11-17T02:02:17.025Z,25.69
2022-11-17T02:02:47.144Z,25.69
2022-11-17T02:03:17.127Z,25.68
2022-11-17T02:03:47.266Z,25.67
2022-11-17T02:04:17.254Z,25.69
2022-11-17T02:04:47.287Z,25.69
2022-11-17T02:05:17.294Z,25.68
2022-11-17T02:05:47.376Z,25.71
2022-11-17T02:06:17.359Z,25.68
2022-11-17T02:06:48.470Z,25.69
2022-11-17T02:07:17.592Z,25.69
2022-11-17T02:07:47.597Z,25.68
2022-11-17T02:08:17.600Z,25.68
2022-11-17T02:08:47.596Z,25.68
2022-11-17T02:09:17.693Z,25.69
2022-11-17T02:09:47.779Z,25.67
2022-11-17T02:10:17.868Z,25.68
2022-11-17T02:10:51.611Z,25.68
2022-11-17T02:11:18.006Z,25.68
2022-11-17T02:11:48.097Z,25.68
2022-11-17T02:12:18.195Z,25.69
2022-11-17T02:12:48.293Z,25.68
2022-11-17T02:13:18.366Z,25.68
2022-11-17T02:13:48.453Z,25.69
2022-11-17T02:14:18.659Z,25.69
2022-11-17T02:14:48.583Z,25.68
2022-11-17T02:15:18.666Z,25.68
2022-11-17T02:15:48.795Z,25.68
2022-11-17T02:16:18.876Z,25.67
2022-11-17T02:16:48.996Z,25.65
2022-11-17T02:17:18.998Z,25.68
2022-11-17T02:17:49.089Z,25.68
2022-11-17T02:18:19.158Z,25.68
2022-11-17T02:18:49.240Z,25.68
2022-11-17T02:19:19.236Z,25.67
2022-11-17T02:19:49.377Z,25.68
2022-11-17T02:20:19.379Z,25.69
2022-11-17T02:20:49.404Z,25.68
2022-11-17T02:21:19.423Z,25.68
2022-11-17T02:21:49.434Z,25.68
2022-11-17T02:22:19.465Z,25.68
2022-11-17T02:22:49.477Z,25.69
2022-11-17T02:23:19.461Z,25.68
2022-11-17T02:23:49.455Z,25.67
2022-11-17T02:24:19.586Z,25.68
2022-11-17T02:24:49.581Z,25.68
2022-11-17T02:25:22.966Z,25.68
2022-11-17T02:25:49.727Z,25.68
2022-11-17T02:26:19.730Z,25.67
2022-11-17T02:26:49.847Z,25.65
2022-11-17T02:27:19.855Z,25.69
2022-11-17T02:27:49.857Z,25.68
2022-11-17T02:28:19.855Z,25.68
2022-11-17T02:28:49.854Z,25.68
2022-11-17T02:29:19.966Z,25.67
2022-11-17T02:29:49.976Z,25.68
2022-11-17T02:30:20.080Z,25.68
2022-11-17T02:30:50.120Z,25.69
2022-11-17T02:31:20.124Z,25.68
2022-11-17T02:31:50.167Z,25.68
2022-11-17T02:32:20.149Z,25.67
2022-11-17T02:32:50.257Z,25.68
2022-11-17T02:33:20.382Z,25.68
2022-11-17T02:33:50.398Z,25.69
2022-11-17T02:34:20.432Z,25.69
2022-11-17T02:34:50.443Z,25.69
2022-11-17T02:35:20.565Z,25.68
2022-11-17T02:35:50.559Z,25.67
2022-11-17T02:36:20.562Z,25.68
2022-11-17T02:36:50.628Z,25.67
2022-11-17T02:37:20.652Z,25.68
2022-11-17T02:37:50.654Z,25.67
2022-11-17T02:38:20.767Z,25.69
2022-11-17T02:38:50.763Z,25.68
2022-11-17T02:39:20.877Z,25.69
2022-11-17T02:39:50.993Z,25.68
2022-11-17T02:40:21.007Z,25.69
2022-11-17T02:40:50.994Z,25.67
2022-11-17T02:41:21.000Z,25.68
2022-11-17T02:41:51.012Z,25.69
2022-11-17T02:42:21.011Z,25.68
2022-11-17T02:42:51.015Z,25.68
2022-11-17T02:43:21.017Z,25.67
2022-11-17T02:43:51.031Z,25.68
2022-11-17T02:44:21.036Z,25.69
2022-11-17T02:44:51.150Z,25.68
2022-11-17T02:45:21.377Z,25.67
2022-11-17T02:45:51.338Z,25.69
2022-11-17T02:46:21.470Z,25.69
2022-11-17T02:46:51.475Z,25.68
2022-11-17T02:47:21.475Z,25.69
2022-11-17T02:47:51.470Z,25.68
2022-11-17T02:48:21.590Z,25.69
2022-11-17T02:48:51.580Z,25.68
2022-11-17T02:49:21.584Z,25.68
2022-11-17T02:49:51.572Z,25.69
2022-11-17T02:50:26.734Z,25.67
2022-11-17T02:50:51.706Z,25.67
2022-11-17T02:51:21.716Z,25.68
2022-11-17T02:51:51.712Z,25.67
2022-11-17T02:52:21.714Z,25.68
2022-11-17T02:52:51.762Z,25.68
2022-11-17T02:53:21.761Z,25.65
2022-11-17T02:53:51.748Z,25.67
2022-11-17T02:54:21.871Z,25.68
2022-11-17T02:54:51.991Z,25.67
2022-11-17T02:55:21.998Z,25.67
2022-11-17T02:55:51.999Z,25.68
2022-11-17T02:56:22.039Z,25.68
2022-11-17T02:56:52.042Z,25.68
2022-11-17T02:57:22.103Z,25.68
2022-11-17T02:57:52.112Z,25.67
2022-11-17T02:58:22.117Z,25.68
2022-11-17T02:58:52.111Z,25.68
2022-11-17T02:59:22.110Z,25.68
2022-11-17T02:59:52.097Z,25.68
2022-11-17T03:00:22.104Z,25.67
2022-11-17T03:00:52.125Z,25.68
2022-11-17T03:01:22.203Z,25.68
2022-11-17T03:01:52.199Z,25.67
2022-11-17T03:02:22.343Z,25.68
2022-11-17T03:02:52.201Z,25.68
2022-11-17T03:03:22.351Z,25.67
2022-11-17T03:03:52.339Z,25.67
2022-11-17T03:04:22.485Z,25.65
2022-11-17T03:04:52.527Z,25.69
2022-11-17T03:05:22.514Z,25.68
2022-11-17T03:05:52.509Z,25.67
2022-11-17T03:06:22.694Z,25.71
2022-11-17T03:06:52.710Z,25.65
2022-11-17T03:07:22.807Z,25.68
2022-11-17T03:07:52.809Z,25.68
2022-11-17T03:08:22.815Z,25.68
2022-11-17T03:08:52.805Z,25.69
2022-11-17T03:09:22.894Z,25.67
2022-11-17T03:09:52.973Z,25.68
2022-11-17T03:10:23.049Z,25.67
2022-11-17T03:10:53.150Z,25.71
2022-11-17T03:11:23.232Z,25.68
2022-11-17T03:11:53.313Z,25.68
2022-11-17T03:12:23.396Z,25.69
2022-11-17T03:12:53.497Z,25.68
2022-11-17T03:13:23.585Z,25.68
2022-11-17T03:13:53.685Z,25.69
2022-11-17T03:14:23.794Z,25.69
2022-11-17T03:14:53.876Z,25.68
2022-11-17T03:15:23.961Z,25.68
2022-11-17T03:15:54.030Z,25.67
2022-11-17T03:16:24.222Z,25.69
2022-11-17T03:16:54.145Z,25.67
2022-11-17T03:17:24.234Z,25.69
2022-11-17T03:17:54.341Z,25.69
2022-11-17T03:18:24.422Z,25.71
2022-11-17T03:18:54.522Z,25.69
2022-11-17T03:19:24.530Z,25.67
2022-11-17T03:19:54.531Z,25.67
2022-11-17T03:20:24.639Z,25.68
2022-11-17T03:20:54.764Z,25.69
2022-11-17T03:21:24.916Z,25.69
2022-11-17T03:21:54.906Z,25.69
2022-11-17T03:22:25.028Z,25.71
2022-11-17T03:22:55.139Z,25.68
2022-11-17T03:23:25.143Z,25.71
2022-11-17T03:23:55.145Z,25.69
2022-11-17T03:24:25.152Z,25.69
2022-11-17T03:24:55.179Z,25.69
2022-11-17T03:25:25.174Z,25.68
2022-11-17T03:25:55.314Z,25.68
2022-11-17T03:26:25.326Z,25.68
2022-11-17T03:26:55.326Z,25.69
2022-11-17T03:27:25.328Z,25.71
2022-11-17T03:27:55.373Z,25.69
2022-11-17T03:28:25.369Z,25.72
2022-11-17T03:28:55.483Z,25.69
2022-11-17T03:29:25.487Z,25.69
2022-11-17T03:29:55.599Z,25.67
2022-11-17T03:30:25.634Z,25.68
2022-11-17T03:30:55.614Z,25.69
2022-11-17T03:31:25.653Z,25.69
2022-11-17T03:31:55.670Z,25.68
2022-11-17T03:32:25.643Z,25.69
2022-11-17T03:32:55.653Z,25.72
2022-11-17T03:33:25.651Z,25.69
2022-11-17T03:33:55.666Z,25.69
2022-11-17T03:34:25.666Z,25.71
2022-11-17T03:34:55.670Z,25.71
2022-11-17T03:35:25.681Z,25.69
2022-11-17T03:35:55.673Z,25.71
2022-11-17T03:36:25.849Z,25.71
2022-11-17T03:36:55.847Z,25.71
2022-11-17T03:37:25.848Z,25.71
2022-11-17T03:37:55.958Z,25.68
2022-11-17T03:38:26.077Z,25.68
2022-11-17T03:38:56.081Z,25.69
2022-11-17T03:39:26.079Z,25.67
2022-11-17T03:39:56.191Z,25.68
2022-11-17T03:40:26.242Z,25.68
2022-11-17T03:40:56.267Z,25.67
2022-11-17T03:41:26.294Z,25.67
2022-11-17T03:41:56.283Z,25.68
2022-11-17T03:42:26.291Z,25.71
2022-11-17T03:42:56.282Z,25.68
2022-11-17T03:43:26.291Z,25.68
2022-11-17T03:43:56.289Z,25.69
2022-11-17T03:44:26.309Z,25.68
2022-11-17T03:44:56.308Z,25.67
2022-11-17T03:45:26.312Z,25.68
2022-11-17T03:45:56.319Z,25.69
2022-11-17T03:46:26.355Z,25.68
2022-11-17T03:46:56.348Z,25.68
2022-11-17T03:47:26.430Z,25.67
2022-11-17T03:47:56.382Z,25.65
2022-11-17T03:48:26.492Z,25.67
2022-11-17T03:48:56.648Z,25.67
2022-11-17T03:49:26.636Z,25.67
2022-11-17T03:49:56.639Z,25.68
2022-11-17T03:50:26.644Z,25.67
2022-11-17T03:50:56.784Z,25.67
2022-11-17T03:51:26.805Z,25.65
2022-11-17T03:51:56.790Z,25.67
2022-11-17T03:52:26.787Z,25.65
2022-11-17T03:52:56.779Z,25.67
2022-11-17T03:53:26.767Z,25.67
2022-11-17T03:53:56.890Z,25.65
2022-11-17T03:54:26.883Z,25.67
2022-11-17T03:54:56.884Z,25.65
2022-11-17T03:55:26.887Z,25.67
2022-11-17T03:55:56.895Z,25.67
2022-11-17T03:56:26.915Z,25.65
2022-11-17T03:56:56.942Z,25.65
2022-11-17T03:57:26.926Z,25.65
2022-11-17T03:57:57.059Z,25.64
2022-11-17T03:58:27.051Z,25.64
2022-11-17T03:58:57.187Z,25.64
2022-11-17T03:59:27.181Z,25.67
2022-11-17T03:59:57.190Z,25.67
2022-11-17T04:00:27.186Z,25.64
2022-11-17T04:00:57.187Z,25.67
2022-11-17T04:01:27.368Z,25.64
2022-11-17T04:01:57.457Z,25.65
2022-11-17T04:02:27.372Z,25.68
2022-11-17T04:02:57.501Z,25.65
2022-11-17T04:03:27.474Z,25.65
2022-11-17T04:03:57.593Z,25.64
2022-11-17T04:04:27.592Z,25.64
2022-11-17T04:04:57.610Z,25.64
2022-11-17T04:05:27.758Z,25.65
2022-11-17T04:05:57.744Z,25.65
2022-11-17T04:06:27.827Z,25.64
2022-11-17T04:06:57.879Z,25.64
2022-11-17T04:07:27.974Z,25.65
2022-11-17T04:07:58.014Z,25.62
2022-11-17T04:08:28.016Z,25.67
2022-11-17T04:08:58.124Z,25.65
2022-11-17T04:09:28.204Z,25.65
2022-11-17T04:09:58.300Z,25.61
2022-11-17T04:10:28.364Z,25.64
2022-11-17T04:10:58.466Z,25.62
2022-11-17T04:11:28.548Z,25.62
2022-11-17T04:11:58.631Z,25.62
2022-11-17T04:12:28.745Z,25.62
2022-11-17T04:12:58.826Z,25.64
2022-11-17T04:13:28.928Z,25.62
2022-11-17T04:13:59.006Z,25.65
2022-11-17T04:14:29.088Z,25.62
2022-11-17T04:14:59.168Z,25.62
2022-11-17T04:15:29.187Z,25.64
2022-11-17T04:15:59.457Z,25.64
2022-11-17T04:16:29.270Z,25.64
2022-11-17T04:16:59.349Z,25.61
2022-11-17T04:17:29.454Z,25.62
2022-11-17T04:17:59.539Z,25.64
2022-11-17T04:18:29.749Z,25.65
2022-11-17T04:18:59.704Z,25.64
2022-11-17T04:19:29.715Z,25.62
2022-11-17T04:19:59.711Z,25.62
2022-11-17T04:20:29.858Z,25.64
2022-11-17T04:20:59.831Z,25.64
2022-11-17T04:21:29.986Z,25.62
2022-11-17T04:22:00.026Z,25.62
2022-11-17T04:22:30.030Z,25.62
2022-11-17T04:23:00.072Z,25.61
2022-11-17T04:23:30.102Z,25.62
2022-11-17T04:24:00.249Z,25.61
2022-11-17T04:24:30.252Z,25.64
2022-11-17T04:25:00.267Z,25.64
2022-11-17T04:25:30.256Z,25.61
2022-11-17T04:26:00.377Z,25.61
2022-11-17T04:26:30.434Z,25.64
2022-11-17T04:27:00.462Z,25.64
2022-11-17T04:27:30.481Z,25.64
2022-11-17T04:28:00.497Z,25.64
2022-11-17T04:28:30.488Z,25.64
2022-11-17T04:29:00.495Z,25.64
2022-11-17T04:29:30.616Z,25.62
2022-11-17T04:30:00.719Z,25.61
2022-11-17T04:30:30.854Z,25.62
2022-11-17T04:31:00.852Z,25.64
2022-11-17T04:31:30.856Z,25.61
2022-11-17T04:32:00.856Z,25.61
2022-11-17T04:32:30.980Z,25.64
2022-11-17T04:33:00.991Z,25.65
2022-11-17T04:33:30.993Z,25.64
2022-11-17T04:34:01.106Z,25.64
2022-11-17T04:34:31.074Z,25.62
2022-11-17T04:35:01.197Z,25.64
2022-11-17T04:35:31.200Z,25.62
2022-11-17T04:36:01.318Z,25.62
2022-11-17T04:36:31.321Z,25.62
2022-11-17T04:37:06.911Z,25.62
2022-11-17T04:37:31.332Z,25.62
2022-11-17T04:38:01.472Z,25.61
2022-11-17T04:38:31.491Z,25.58
2022-11-17T04:39:01.469Z,25.57
2022-11-17T04:39:31.479Z,25.55
2022-11-17T04:40:01.484Z,25.57
2022-11-17T04:40:31.481Z,25.57
2022-11-17T04:41:01.601Z,25.57
2022-11-17T04:41:31.644Z,25.60
2022-11-17T04:42:01.613Z,25.57
2022-11-17T04:42:31.764Z,25.58
2022-11-17T04:43:01.733Z,25.60
2022-11-17T04:43:31.847Z,25.58
2022-11-17T04:44:01.737Z,25.60
2022-11-17T04:44:31.734Z,25.57
2022-11-17T04:45:01.739Z,25.54
2022-11-17T04:45:31.728Z,25.54
2022-11-17T04:46:01.727Z,25.57
2022-11-17T04:46:31.864Z,25.55
2022-11-17T04:47:01.875Z,25.54
2022-11-17T04:47:31.912Z,25.55
2022-11-17T04:48:01.908Z,25.57
2022-11-17T04:48:31.908Z,25.55
2022-11-17T04:49:01.902Z,25.58
2022-11-17T04:49:31.974Z,25.58
2022-11-17T04:50:01.942Z,25.58
2022-11-17T04:50:31.936Z,25.58
2022-11-17T04:51:01.960Z,25.62
2022-11-17T04:51:31.976Z,25.61
2022-11-17T04:52:01.961Z,25.62
2022-11-17T04:52:32.075Z,25.64
2022-11-17T04:53:02.188Z,25.62
2022-11-17T04:53:32.279Z,25.64
2022-11-17T04:54:02.315Z,25.64
2022-11-17T04:54:32.306Z,25.67
2022-11-17T04:55:02.422Z,25.65
2022-11-17T04:55:32.429Z,25.67
2022-11-17T04:56:02.436Z,25.67
2022-11-17T04:56:32.453Z,25.65
2022-11-17T04:57:02.441Z,25.65
2022-11-17T04:57:32.564Z,25.67
2022-11-17T04:58:02.568Z,25.68
2022-11-17T04:58:32.559Z,25.67
2022-11-17T04:59:02.682Z,25.68
2022-11-17T04:59:32.675Z,25.67
2022-11-17T05:00:02.669Z,25.65
2022-11-17T05:00:32.666Z,25.69
2022-11-17T05:01:02.670Z,25.68
2022-11-17T05:01:32.680Z,25.71
2022-11-17T05:02:06.143Z,25.67
2022-11-17T05:02:32.776Z,25.69
2022-11-17T05:03:02.769Z,25.72
2022-11-17T05:03:33.117Z,25.69
2022-11-17T05:04:02.879Z,25.72
2022-11-17T05:04:32.876Z,25.68
2022-11-17T05:05:03.015Z,25.72
2022-11-17T05:05:32.994Z,25.71
2022-11-17T05:06:02.996Z,25.72
2022-11-17T05:06:33.111Z,25.71
2022-11-17T05:07:03.187Z,25.71
2022-11-17T05:07:33.265Z,25.71
2022-11-17T05:08:03.374Z,25.72
2022-11-17T05:08:33.362Z,25.72
2022-11-17T05:09:03.355Z,25.69
2022-11-17T05:09:33.435Z,25.71
2022-11-17T05:10:03.516Z,25.69
2022-11-17T05:10:33.718Z,25.72
2022-11-17T05:11:03.799Z,25.75
2022-11-17T05:11:33.819Z,25.71
2022-11-17T05:12:03.887Z,25.72
2022-11-17T05:12:33.979Z,25.72
2022-11-17T05:13:04.067Z,25.74
2022-11-17T05:13:34.446Z,25.74
2022-11-17T05:14:04.220Z,25.75
2022-11-17T05:14:34.300Z,25.75
2022-11-17T05:15:04.390Z,25.74
2022-11-17T05:15:34.503Z,25.75
2022-11-17T05:16:04.475Z,25.74
2022-11-17T05:16:34.573Z,25.76
2022-11-17T05:17:09.346Z,25.76
2022-11-17T05:17:34.786Z,25.74
2022-11-17T05:18:04.874Z,25.76
2022-11-17T05:18:34.985Z,25.74
2022-11-17T05:19:04.951Z,25.78
2022-11-17T05:19:35.072Z,25.75
2022-11-17T05:20:05.097Z,25.76
2022-11-17T05:20:35.192Z,25.76
2022-11-17T05:21:05.193Z,25.75
2022-11-17T05:21:35.204Z,25.78
2022-11-17T05:22:05.195Z,25.76
2022-11-17T05:22:35.323Z,25.65
2022-11-17T05:23:06.953Z,25.67
2022-11-17T05:23:35.729Z,25.65
2022-11-17T05:24:05.394Z,25.64
2022-11-17T05:24:35.523Z,25.64
2022-11-17T05:25:05.521Z,25.67
2022-11-17T05:25:35.643Z,25.67
2022-11-17T05:26:05.651Z,25.67
2022-11-17T05:26:35.696Z,25.64
2022-11-17T05:27:05.751Z,25.62
2022-11-17T05:27:35.756Z,25.61
2022-11-17T05:28:05.764Z,25.65
2022-11-17T05:28:35.757Z,25.52
2022-11-17T05:29:05.767Z,25.55
2022-11-17T05:29:35.762Z,25.52
2022-11-17T05:30:05.879Z,25.55
2022-11-17T05:30:36.008Z,25.57
2022-11-17T05:31:06.014Z,25.58
2022-11-17T05:31:36.142Z,25.51
2022-11-17T05:32:06.147Z,25.52
2022-11-17T05:32:36.255Z,25.54
2022-11-17T05:33:06.252Z,25.57
2022-11-17T05:33:37.907Z,25.52
2022-11-17T05:34:06.382Z,25.51
2022-11-17T05:34:36.355Z,25.57
2022-11-17T05:35:06.349Z,25.55
2022-11-17T05:35:36.503Z,25.58
2022-11-17T05:36:06.464Z,25.61
2022-11-17T05:36:36.629Z,25.61
2022-11-17T05:37:06.637Z,25.60
2022-11-17T05:37:36.630Z,25.62
2022-11-17T05:38:06.626Z,25.61
2022-11-17T05:38:36.746Z,25.60
2022-11-17T05:39:06.769Z,25.61
2022-11-17T05:39:36.776Z,25.64
2022-11-17T05:40:06.801Z,25.64
2022-11-17T05:40:36.794Z,25.64
2022-11-17T05:41:06.787Z,25.65
2022-11-17T05:41:36.910Z,25.67
2022-11-17T05:42:06.906Z,25.65
2022-11-17T05:42:37.027Z,25.64
2022-11-17T05:43:07.038Z,25.64
2022-11-17T05:43:37.468Z,25.65
2022-11-17T05:44:07.135Z,25.65
2022-11-17T05:44:37.137Z,25.67
2022-11-17T05:45:07.130Z,25.65
2022-11-17T05:45:37.160Z,25.64
2022-11-17T05:46:07.167Z,25.64
2022-11-17T05:46:37.156Z,25.61
2022-11-17T05:47:07.269Z,25.62
2022-11-17T05:47:37.270Z,25.62
2022-11-17T05:48:07.276Z,25.64
2022-11-17T05:48:37.268Z,25.65
2022-11-17T05:49:07.413Z,25.65
2022-11-17T05:49:37.414Z,25.62
2022-11-17T05:50:07.402Z,25.64
2022-11-17T05:50:37.530Z,25.64
2022-11-17T05:51:07.577Z,25.65
2022-11-17T05:51:37.603Z,25.65
2022-11-17T05:52:07.748Z,25.67
2022-11-17T05:52:37.728Z,25.67
2022-11-17T05:53:07.737Z,25.69
2022-11-17T05:53:38.149Z,25.68
2022-11-17T05:54:08.067Z,25.69
2022-11-17T05:54:38.015Z,25.71
2022-11-17T05:55:07.968Z,25.72
2022-11-17T05:55:38.139Z,25.72
2022-11-17T05:56:08.132Z,25.72
2022-11-17T05:56:38.138Z,25.72
2022-11-17T05:57:08.136Z,25.74
2022-11-17T05:57:38.172Z,25.76
2022-11-17T05:58:08.417Z,25.76
2022-11-17T05:58:38.293Z,25.76
2022-11-17T05:59:08.370Z,25.76
2022-11-17T05:59:38.423Z,25.78
2022-11-17T06:00:08.420Z,25.76
2022-11-17T06:00:38.432Z,25.79
2022-11-17T06:01:08.426Z,25.78
2022-11-17T06:01:38.421Z,25.79
2022-11-17T06:02:08.547Z,25.79
2022-11-17T06:02:38.543Z,25.79
2022-11-17T06:03:08.537Z,25.82
2022-11-17T06:03:38.691Z,25.81
2022-11-17T06:04:08.738Z,25.81
2022-11-17T06:04:38.831Z,25.81
2022-11-17T06:05:08.825Z,25.79
2022-11-17T06:05:38.827Z,25.81
2022-11-17T06:06:08.938Z,25.81
2022-11-17T06:06:39.092Z,25.82
2022-11-17T06:07:09.084Z,25.81
2022-11-17T06:07:39.111Z,25.81
2022-11-17T06:08:09.136Z,25.74
2022-11-17T06:08:39.234Z,25.74
2022-11-17T06:09:09.343Z,25.76
2022-11-17T06:09:39.428Z,25.75
2022-11-17T06:10:09.550Z,25.78
2022-11-17T06:10:39.625Z,25.78
2022-11-17T06:11:09.699Z,25.79
2022-11-17T06:11:39.780Z,25.81
2022-11-17T06:12:09.890Z,25.79
2022-11-17T06:12:39.970Z,25.81
2022-11-17T06:13:10.038Z,25.84
2022-11-17T06:13:40.130Z,25.85
2022-11-17T06:14:10.232Z,25.86
2022-11-17T06:14:40.329Z,25.88
2022-11-17T06:15:10.412Z,25.88
2022-11-17T06:15:40.506Z,25.91
2022-11-17T06:16:10.591Z,25.92
2022-11-17T06:16:40.665Z,25.96
2022-11-17T06:17:10.773Z,25.96
2022-11-17T06:17:40.871Z,25.96
2022-11-17T06:18:10.957Z,25.97
2022-11-17T06:18:41.042Z,26.00
2022-11-17T06:19:11.151Z,26.02
2022-11-17T06:19:41.277Z,26.05
2022-11-17T06:20:11.282Z,26.05
2022-11-17T06:20:41.274Z,26.07
2022-11-17T06:21:13.959Z,26.10
2022-11-17T06:22:10.076Z,26.10
2022-11-17T06:22:13.359Z,26.12
2022-11-17T06:22:47.039Z,26.15
2022-11-17T06:23:11.536Z,26.16
2022-11-17T06:23:41.566Z,26.15
2022-11-17T06:24:11.583Z,26.17
2022-11-17T06:24:41.585Z,26.19
2022-11-17T06:25:11.565Z,26.20
2022-11-17T06:25:41.722Z,26.22
2022-11-17T06:26:11.713Z,26.22
2022-11-17T06:26:41.717Z,26.24